createdAt,value
2023-04-07T00:02:51.844Z,73.65
2023-04-07T00:05:54.982Z,73.71
2023-04-07T00:08:58.003Z,73.71
2023-04-07T00:12:03.763Z,73.71
2023-04-07T00:15:07.441Z,73.79
2023-04-07T00:18:10.823Z,73.85
2023-04-07T00:21:13.828Z,73.87
2023-04-07T00:24:27.174Z,73.89
2023-04-07T00:27:36.962Z,73.96
2023-04-07T00:30:41.505Z,73.94
2023-04-07T00:33:44.734Z,73.97
2023-04-07T00:36:52.116Z,73.96
2023-04-07T00:39:56.310Z,74.10
2023-04-07T00:42:59.292Z,74.09
2023-04-07T00:46:02.631Z,74.13
2023-04-07T00:49:07.043Z,74.14
2023-04-07T00:52:12.096Z,74.19
2023-04-07T00:55:15.072Z,74.22
2023-04-07T00:58:18.074Z,74.23
2023-04-07T01:01:30.994Z,74.37
2023-04-07T01:04:51.566Z,74.39
2023-04-07T01:08:12.896Z,74.39
2023-04-07T01:11:28.323Z,74.36
2023-04-07T01:14:38.561Z,74.41
2023-04-07T01:18:08.860Z,74.45
2023-04-07T01:21:16.598Z,74.53
2023-04-07T01:24:57.748Z,74.54
2023-04-07T01:28:36.369Z,74.60
2023-04-07T01:31:41.169Z,74.58
2023-04-07T01:34:48.098Z,74.57
2023-04-07T01:37:52.602Z,74.64
2023-04-07T01:40:57.051Z,74.69
2023-04-07T01:44:02.238Z,74.77
2023-04-07T01:47:06.204Z,74.77
2023-04-07T01:50:11.093Z,74.82
2023-04-07T01:53:15.974Z,74.89
2023-04-07T01:56:19.040Z,74.91
2023-04-07T01:59:25.912Z,74.99
2023-04-07T02:02:30.813Z,75.04
2023-04-07T02:05:36.169Z,75.01
2023-04-07T02:08:44.186Z,75.05
2023-04-07T02:11:49.515Z,75.07
2023-04-07T02:14:54.429Z,75.08
2023-04-07T02:17:59.454Z,75.16
2023-04-07T02:21:04.321Z,75.18
2023-04-07T02:24:07.745Z,75.18
2023-04-07T02:27:10.838Z,75.25
2023-04-07T02:30:14.284Z,75.27
2023-04-07T02:33:17.272Z,75.31
2023-04-07T02:36:20.375Z,75.37
2023-04-07T02:39:23.404Z,75.39
2023-04-07T02:42:26.906Z,75.45
2023-04-07T02:45:31.873Z,75.51
2023-04-07T02:48:34.847Z,75.54
2023-04-07T02:51:38.990Z,75.64
2023-04-07T02:54:42.061Z,75.62
2023-04-07T02:57:45.679Z,75.61
2023-04-07T03:00:56.993Z,75.66
2023-04-07T03:04:04.010Z,75.60
2023-04-07T03:07:07.237Z,75.62
2023-04-07T03:10:11.177Z,75.65
2023-04-07T03:13:16.577Z,75.65
2023-04-07T03:16:19.829Z,75.66
2023-04-07T03:19:33.927Z,75.66
2023-04-07T03:22:36.987Z,75.70
2023-04-07T03:25:42.960Z,75.80
2023-04-07T03:28:46.474Z,75.76
2023-04-07T03:31:50.337Z,75.74
2023-04-07T03:34:54.723Z,75.76
2023-04-07T03:37:57.772Z,75.79
2023-04-07T03:41:01.508Z,75.83
2023-04-07T03:44:04.609Z,75.82
2023-04-07T03:47:08.264Z,75.85
2023-04-07T03:50:12.148Z,75.85
2023-04-07T03:53:24.333Z,75.89
2023-04-07T03:56:28.980Z,75.91
2023-04-07T03:59:33.638Z,75.92
2023-04-07T04:02:39.084Z,75.94
2023-04-07T04:05:42.621Z,76.01
2023-04-07T04:08:47.207Z,76.02
2023-04-07T04:11:51.177Z,76.02
2023-04-07T04:14:54.362Z,76.01
2023-04-07T04:17:58.376Z,76.02
2023-04-07T04:21:02.242Z,76.02
2023-04-07T04:24:05.887Z,76.04
2023-04-07T04:27:09.376Z,76.05
2023-04-07T04:30:13.066Z,76.11
2023-04-07T04:33:21.832Z,76.13
2023-04-07T04:36:32.376Z,76.14
2023-04-07T04:39:39.292Z,76.15
2023-04-07T04:42:42.562Z,76.11
2023-04-07T04:45:47.395Z,76.15
2023-04-07T04:48:52.728Z,76.19
2023-04-07T04:51:56.394Z,76.22
2023-04-07T04:54:59.563Z,76.27
2023-04-07T04:58:03.010Z,76.22
2023-04-07T05:01:14.058Z,76.21
2023-04-07T05:04:22.006Z,76.22
2023-04-07T05:07:32.230Z,76.26
2023-04-07T05:10:39.978Z,76.23
2023-04-07T05:13:45.134Z,76.23
2023-04-07T05:16:48.520Z,76.25
2023-04-07T05:19:57.419Z,76.31
2023-04-07T05:23:09.196Z,76.33
2023-04-07T05:26:12.734Z,76.39
2023-04-07T05:29:16.441Z,76.39
2023-04-07T05:32:19.548Z,76.42
2023-04-07T05:35:22.673Z,76.44
2023-04-07T05:38:29.838Z,76.42
2023-04-07T05:41:34.981Z,76.42
2023-04-07T05:44:38.482Z,76.46
2023-04-07T05:47:41.611Z,76.49
2023-04-07T05:50:45.047Z,76.51
2023-04-07T05:53:51.598Z,76.56
2023-04-07T05:56:56.564Z,76.58
2023-04-07T06:00:00.563Z,76.58
2023-04-07T06:03:03.983Z,76.62
2023-04-07T06:06:11.768Z,76.62
2023-04-07T06:09:14.860Z,76.58
2023-04-07T06:12:18.153Z,76.58
2023-04-07T06:15:21.245Z,76.59
2023-04-07T06:18:24.773Z,76.61
2023-04-07T06:21:27.943Z,76.64
2023-04-07T06:24:30.941Z,76.64
2023-04-07T06:27:33.939Z,76.75
2023-04-07T06:30:36.998Z,76.81
2023-04-07T06:33:40.530Z,76.80
2023-04-07T06:36:43.594Z,76.83
2023-04-07T06:39:46.760Z,76.81
2023-04-07T06:42:49.713Z,76.75
2023-04-07T06:45:59.266Z,76.73
2023-04-07T06:49:02.538Z,76.74
2023-04-07T06:52:06.337Z,76.78
2023-04-07T06:55:09.723Z,76.83
2023-04-07T06:58:12.775Z,76.86
2023-04-07T07:01:16.052Z,76.82
2023-04-07T07:04:19.190Z,76.82
2023-04-07T07:07:22.546Z,76.80
2023-04-07T07:10:25.797Z,76.82
2023-04-07T07:13:28.931Z,76.87
2023-04-07T07:16:31.994Z,76.86
2023-04-07T07:19:35.478Z,76.81
2023-04-07T07:22:38.493Z,76.87
2023-04-07T07:25:41.690Z,76.90
2023-04-07T07:28:44.619Z,77.02
2023-04-07T07:31:47.749Z,77.00
2023-04-07T07:34:50.905Z,77.06
2023-04-07T07:37:53.906Z,77.11
2023-04-07T07:40:56.880Z,77.20
2023-04-07T07:43:59.853Z,77.26
2023-04-07T07:47:02.932Z,77.21
2023-04-07T07:50:07.029Z,77.21
2023-04-07T07:53:10.852Z,77.29
2023-04-07T07:56:14.770Z,77.31
2023-04-07T07:59:17.986Z,77.33
2023-04-07T08:02:21.371Z,77.35
2023-04-07T08:05:24.692Z,77.41
2023-04-07T08:08:27.821Z,77.38
2023-04-07T08:11:30.921Z,77.35
2023-04-07T08:14:34.111Z,77.39
2023-04-07T08:17:37.979Z,77.37
2023-04-07T08:20:41.136Z,77.40
2023-04-07T08:23:44.538Z,77.41
2023-04-07T08:26:48.152Z,77.45
2023-04-07T08:30:06.424Z,77.53
2023-04-07T08:33:09.567Z,77.62
2023-04-07T08:36:12.939Z,77.58
2023-04-07T08:39:15.970Z,77.62
2023-04-07T08:42:21.799Z,77.70
2023-04-07T08:45:26.494Z,77.78
2023-04-07T08:48:34.344Z,77.84
2023-04-07T08:51:39.634Z,77.81
2023-04-07T08:54:43.195Z,77.88
2023-04-07T08:57:46.885Z,77.93
2023-04-07T09:00:51.706Z,77.96
2023-04-07T09:03:57.429Z,77.99
2023-04-07T09:07:02.131Z,77.98
2023-04-07T09:10:05.890Z,77.97
2023-04-07T09:13:09.043Z,78.04
2023-04-07T09:16:14.128Z,78.06
2023-04-07T09:19:17.207Z,78.13
2023-04-07T09:22:50.436Z,78.11
2023-04-07T09:25:53.491Z,78.14
2023-04-07T09:29:01.442Z,78.19
2023-04-07T09:32:04.883Z,78.29
2023-04-07T09:35:08.483Z,78.31
2023-04-07T09:38:11.450Z,78.33
2023-04-07T09:41:19.861Z,78.41
2023-04-07T09:44:23.483Z,78.51
2023-04-07T09:47:30.955Z,78.58
2023-04-07T09:50:35.321Z,78.68
2023-04-07T09:53:42.218Z,78.63
2023-04-07T09:56:45.688Z,78.73
2023-04-07T09:59:48.919Z,78.68
2023-04-07T10:02:53.311Z,78.79
2023-04-07T10:05:56.788Z,78.87
2023-04-07T10:09:00.117Z,78.94
2023-04-07T10:12:04.207Z,79.01
2023-04-07T10:15:08.506Z,79.08
2023-04-07T10:18:12.809Z,79.11
2023-04-07T10:21:16.784Z,79.12
2023-04-07T10:24:47.308Z,79.16
2023-04-07T10:27:57.145Z,79.28
2023-04-07T10:31:01.127Z,79.24
2023-04-07T10:34:06.034Z,79.26
2023-04-07T10:37:14.222Z,79.33
2023-04-07T10:40:21.532Z,79.45
2023-04-07T10:43:40.086Z,79.41
2023-04-07T10:46:50.232Z,79.42
2023-04-07T10:50:15.694Z,79.46
2023-04-07T10:53:18.877Z,79.45
2023-04-07T10:56:21.895Z,79.49
2023-04-07T10:59:27.826Z,79.52
2023-04-07T11:02:32.790Z,79.61
2023-04-07T11:05:38.808Z,79.70
2023-04-07T11:08:48.779Z,79.73
2023-04-07T11:11:53.547Z,79.73
2023-04-07T11:14:56.686Z,79.77
2023-04-07T11:18:15.590Z,79.85
2023-04-07T11:21:19.643Z,79.95
2023-04-07T11:24:38.077Z,79.91
2023-04-07T11:27:41.213Z,80.01
2023-04-07T11:30:52.861Z,80.05
2023-04-07T11:33:58.930Z,80.15
2023-04-07T11:37:24.948Z,80.11
2023-04-07T11:40:38.098Z,80.11
2023-04-07T11:43:44.306Z,80.09
2023-04-07T11:47:03.757Z,80.20
2023-04-07T11:50:07.809Z,80.30
2023-04-07T11:53:10.874Z,80.33
2023-04-07T11:56:18.791Z,80.37
2023-04-07T11:59:26.008Z,80.47
2023-04-07T12:02:33.877Z,80.49
2023-04-07T12:05:45.237Z,80.52
2023-04-07T12:08:48.211Z,80.52
2023-04-07T12:11:51.221Z,80.55
2023-04-07T12:14:55.547Z,80.56
2023-04-07T12:17:58.538Z,80.52
2023-04-07T12:21:01.933Z,80.56
2023-04-07T12:24:04.967Z,80.55
2023-04-07T12:27:08.476Z,80.49
2023-04-07T12:30:12.910Z,80.48
2023-04-07T12:33:16.489Z,80.52
2023-04-07T12:36:19.458Z,80.54
2023-04-07T12:39:22.700Z,80.57
2023-04-07T12:42:26.281Z,80.61
2023-04-07T12:45:31.226Z,80.67
2023-04-07T12:48:34.368Z,80.71
2023-04-07T12:51:40.039Z,80.75
2023-04-07T12:54:44.531Z,80.79
2023-04-07T12:57:47.561Z,80.85
2023-04-07T13:00:50.670Z,80.87
2023-04-07T13:03:54.162Z,80.87
2023-04-07T13:06:57.541Z,80.95
2023-04-07T13:10:00.927Z,81.01
2023-04-07T13:13:03.860Z,80.92
2023-04-07T13:16:06.988Z,80.95
2023-04-07T13:19:10.289Z,80.92
2023-04-07T13:22:18.314Z,80.97
2023-04-07T13:25:24.929Z,81.04
2023-04-07T13:28:28.011Z,81.07
2023-04-07T13:31:30.953Z,81.11
2023-04-07T13:34:35.339Z,81.14
2023-04-07T13:37:38.364Z,81.20
2023-04-07T13:40:41.592Z,81.24
2023-04-07T13:43:44.556Z,81.28
2023-04-07T13:46:47.674Z,81.27
2023-04-07T13:49:52.098Z,81.34
2023-04-07T13:52:55.134Z,81.37
2023-04-07T13:55:58.122Z,81.40
2023-04-07T13:59:01.972Z,81.40
2023-04-07T14:02:05.165Z,81.45
2023-04-07T14:05:08.465Z,81.51
2023-04-07T14:08:11.406Z,81.64
2023-04-07T14:11:24.331Z,81.61
2023-04-07T14:14:27.426Z,81.64
2023-04-07T14:17:30.637Z,81.63
2023-04-07T14:20:33.724Z,81.63
2023-04-07T14:23:37.973Z,81.64
2023-04-07T14:26:41.042Z,81.68
2023-04-07T14:29:44.051Z,81.72
2023-04-07T14:32:47.124Z,81.75
2023-04-07T14:35:50.478Z,81.76
2023-04-07T14:38:54.263Z,81.75
2023-04-07T14:41:57.298Z,81.78
2023-04-07T14:45:00.347Z,81.82
2023-04-07T14:48:03.440Z,81.87
2023-04-07T14:51:13.057Z,81.91
2023-04-07T14:54:16.048Z,81.94
2023-04-07T14:57:19.136Z,81.96
2023-04-07T15:00:22.470Z,81.99
2023-04-07T15:03:25.648Z,82.01
2023-04-07T15:06:29.002Z,82.03
2023-04-07T15:09:32.023Z,82.05
2023-04-07T15:12:34.978Z,82.04
2023-04-07T15:15:38.142Z,82.05
2023-04-07T15:18:44.826Z,82.09
2023-04-07T15:21:47.835Z,82.10
2023-04-07T15:24:51.026Z,82.09
2023-04-07T15:27:54.017Z,82.09
2023-04-07T15:30:57.256Z,82.12
2023-04-07T15:34:00.270Z,82.13
2023-04-07T15:37:04.135Z,82.15
2023-04-07T15:40:07.914Z,82.20
2023-04-07T15:43:11.459Z,82.24
2023-04-07T15:46:15.698Z,82.26
2023-04-07T15:49:23.146Z,82.30
2023-04-07T15:52:28.796Z,82.35
2023-04-07T15:55:33.301Z,82.38
2023-04-07T15:58:36.351Z,82.38
2023-04-07T16:01:39.607Z,82.34
2023-04-07T16:04:42.744Z,82.34
2023-04-07T16:07:46.014Z,82.34
2023-04-07T16:10:49.015Z,82.38
2023-04-07T16:13:52.164Z,82.39
2023-04-07T16:16:59.125Z,82.45
2023-04-07T16:20:02.409Z,82.49
2023-04-07T16:23:05.778Z,82.53
2023-04-07T16:26:08.848Z,82.58
2023-04-07T16:29:11.865Z,82.59
2023-04-07T16:32:14.997Z,82.60
2023-04-07T16:35:18.160Z,82.63
2023-04-07T16:38:23.263Z,82.65
2023-04-07T16:41:26.519Z,82.68
2023-04-07T16:44:30.059Z,82.73
2023-04-07T16:47:33.329Z,82.78
2023-04-07T16:50:43.067Z,82.81
2023-04-07T16:53:46.727Z,82.83
2023-04-07T16:56:49.985Z,82.86
2023-04-07T16:59:53.050Z,82.90
2023-04-07T17:02:56.480Z,82.91
2023-04-07T17:06:05.377Z,82.92
2023-04-07T17:09:08.453Z,82.94
2023-04-07T17:12:11.774Z,82.97
2023-04-07T17:15:15.345Z,83.01
2023-04-07T17:18:18.364Z,83.03
2023-04-07T17:21:21.391Z,83.07
2023-04-07T17:24:25.682Z,83.11
2023-04-07T17:27:29.109Z,83.15
2023-04-07T17:30:32.365Z,83.18
2023-04-07T17:33:35.549Z,83.19
2023-04-07T17:36:38.851Z,83.22
2023-04-07T17:39:42.037Z,83.26
2023-04-07T17:42:45.818Z,83.29
2023-04-07T17:45:49.652Z,83.29
2023-04-07T17:48:54.452Z,83.32
2023-04-07T17:51:57.363Z,83.33
2023-04-07T17:55:00.776Z,83.36
2023-04-07T17:58:03.913Z,83.38
2023-04-07T18:01:11.039Z,83.39
2023-04-07T18:04:15.060Z,83.43
2023-04-07T18:07:18.301Z,83.42
2023-04-07T18:10:21.818Z,83.45
2023-04-07T18:13:24.936Z,83.49
2023-04-07T18:16:28.196Z,83.52
2023-04-07T18:19:32.980Z,83.53
2023-04-07T18:22:37.383Z,83.57
2023-04-07T18:25:40.425Z,83.59
2023-04-07T18:28:43.534Z,83.61
2023-04-07T18:31:46.769Z,83.62
2023-04-07T18:34:50.958Z,83.62
2023-04-07T18:37:54.001Z,83.63
2023-04-07T18:40:57.153Z,83.67
2023-04-07T18:44:00.380Z,83.68
2023-04-07T18:47:03.856Z,83.72
2023-04-07T18:50:07.774Z,83.73
2023-04-07T18:53:11.862Z,83.74
2023-04-07T18:56:14.996Z,83.73
2023-04-07T18:59:17.983Z,83.77
2023-04-07T19:02:21.280Z,83.78
2023-04-07T19:05:25.685Z,83.81
2023-04-07T19:08:29.075Z,83.81
2023-04-07T19:11:32.776Z,83.84
2023-04-07T19:14:35.871Z,83.87
2023-04-07T19:17:39.094Z,83.88
2023-04-07T19:20:42.270Z,83.88
2023-04-07T19:23:46.793Z,83.92
2023-04-07T19:26:50.817Z,83.95
2023-04-07T19:29:53.920Z,83.95
2023-04-07T19:32:57.073Z,83.97
2023-04-07T19:36:00.834Z,84.01
2023-04-07T19:39:05.384Z,84.05
2023-04-07T19:42:08.659Z,84.07
2023-04-07T19:45:12.179Z,84.05
2023-04-07T19:48:19.310Z,84.05
2023-04-07T19:51:22.495Z,84.05
2023-04-07T19:54:26.016Z,84.04
2023-04-07T19:57:31.496Z,84.06
2023-04-07T20:00:36.330Z,84.09
2023-04-07T20:03:42.887Z,84.11
2023-04-07T20:06:45.984Z,84.11
2023-04-07T20:09:52.947Z,84.11
2023-04-07T20:12:56.389Z,84.11
2023-04-07T20:15:59.643Z,84.12
2023-04-07T20:19:04.376Z,84.15
2023-04-07T20:22:07.834Z,84.16
2023-04-07T20:25:10.978Z,84.18
2023-04-07T20:28:14.097Z,84.20
2023-04-07T20:31:18.383Z,84.20
2023-04-07T20:34:22.568Z,84.19
2023-04-07T20:37:26.605Z,84.19
2023-04-07T20:40:30.850Z,84.18
2023-04-07T20:43:33.904Z,84.21
2023-04-07T20:46:37.163Z,84.20
2023-04-07T20:49:42.626Z,84.25
2023-04-07T20:52:45.640Z,84.27
2023-04-07T20:55:48.679Z,84.29
2023-04-07T20:58:51.797Z,84.29
2023-04-07T21:01:55.498Z,84.32
2023-04-07T21:04:58.754Z,84.28
2023-04-07T21:08:03.675Z,84.21
2023-04-07T21:11:06.641Z,84.17
2023-04-07T21:14:09.713Z,84.04
2023-04-07T21:17:12.693Z,83.85
2023-04-07T21:20:15.838Z,83.69
2023-04-07T21:23:19.434Z,83.52
2023-04-07T21:26:22.659Z,83.42
2023-04-07T21:29:29.960Z,83.33
2023-04-07T21:32:33.354Z,83.32
2023-04-07T21:35:36.471Z,83.31
2023-04-07T21:38:39.480Z,83.25
2023-04-07T21:41:42.496Z,83.18
2023-04-07T21:44:45.528Z,83.15
2023-04-07T21:47:48.575Z,83.08
2023-04-07T21:50:52.238Z,83.08
2023-04-07T21:53:55.537Z,83.13
2023-04-07T21:57:00.978Z,83.14
2023-04-07T22:00:05.170Z,83.15
2023-04-07T22:03:17.794Z,83.19
2023-04-07T22:06:21.211Z,83.20
2023-04-07T22:09:24.554Z,83.22
2023-04-07T22:12:27.692Z,83.19
2023-04-07T22:15:30.805Z,83.16
2023-04-07T22:18:33.947Z,83.11
2023-04-07T22:21:37.124Z,83.18
2023-04-07T22:24:40.270Z,83.22
2023-04-07T22:27:43.373Z,83.25
2023-04-07T22:30:46.446Z,83.16
2023-04-07T22:33:49.502Z,83.11
2023-04-07T22:36:52.815Z,83.06
2023-04-07T22:39:56.002Z,82.94
2023-04-07T22:42:59.112Z,82.94
2023-04-07T22:46:02.220Z,82.88
2023-04-07T22:49:05.374Z,82.89
2023-04-07T22:52:08.544Z,82.89
2023-04-07T22:55:11.617Z,82.85
2023-04-07T22:58:14.683Z,82.76
2023-04-07T23:01:17.761Z,82.69
2023-04-07T23:04:21.493Z,82.61
2023-04-07T23:07:24.571Z,82.52
2023-04-07T23:10:27.678Z,82.41
2023-04-07T23:13:31.019Z,82.32
2023-04-07T23:16:34.627Z,82.25
2023-04-07T23:19:37.689Z,82.15
2023-04-07T23:22:41.164Z,82.03
2023-04-07T23:25:45.584Z,81.94
2023-04-07T23:28:49.052Z,81.81
2023-04-07T23:31:52.942Z,81.70
2023-04-07T23:34:56.243Z,81.63
2023-04-07T23:37:59.225Z,81.58
2023-04-07T23:41:02.313Z,81.50
2023-04-07T23:44:05.724Z,81.48
2023-04-07T23:47:08.784Z,81.42
2023-04-07T23:50:12.026Z,81.38
2023-04-07T23:53:15.085Z,81.32
2023-04-07T23:56:18.141Z,81.22
2023-04-07T23:59:21.236Z,81.14
